createdAt,value
2016-03-15T00:00:31.717Z,9.29
2016-03-15T00:01:31.735Z,9.29
2016-03-15T00:02:31.769Z,9.29
2016-03-15T00:03:31.802Z,9.25
2016-03-15T00:04:31.790Z,9.29
2016-03-15T00:05:31.808Z,9.25
2016-03-15T00:06:31.827Z,9.28
2016-03-15T00:07:31.849Z,9.26
2016-03-15T00:08:31.883Z,9.36
2016-03-15T00:09:31.871Z,9.26
2016-03-15T00:10:31.904Z,9.26
2016-03-15T00:11:31.924Z,9.31
2016-03-15T00:12:31.941Z,9.26
2016-03-15T00:13:31.960Z,9.29
2016-03-15T00:14:31.978Z,9.19
2016-03-15T00:15:31.996Z,9.25
2016-03-15T00:16:32.015Z,9.25
2016-03-15T00:17:31.877Z,9.25
2016-03-15T00:18:32.051Z,9.28
2016-03-15T00:19:31.898Z,9.32
2016-03-15T00:20:32.072Z,9.25
2016-03-15T00:21:31.934Z,9.22
2016-03-15T00:22:32.109Z,9.25
2016-03-15T00:23:32.142Z,9.18
2016-03-15T00:24:32.146Z,9.23
2016-03-15T00:25:32.179Z,9.28
2016-03-15T00:26:32.181Z,9.23
2016-03-15T00:27:32.216Z,9.26
2016-03-15T00:28:32.219Z,9.22
2016-03-15T00:29:32.237Z,9.25
2016-03-15T00:30:32.256Z,9.22
2016-03-15T00:31:32.274Z,9.19
2016-03-15T00:32:32.308Z,9.23
2016-03-15T00:33:32.155Z,9.25
2016-03-15T00:34:32.328Z,9.23
2016-03-15T00:35:32.348Z,9.18
2016-03-15T00:36:32.367Z,9.26
2016-03-15T00:37:32.384Z,9.23
2016-03-15T00:38:32.387Z,9.18
2016-03-15T00:39:32.420Z,9.22
2016-03-15T00:40:32.439Z,9.28
2016-03-15T00:41:32.442Z,9.22
2016-03-15T00:42:32.476Z,9.14
2016-03-15T00:43:32.479Z,9.13
2016-03-15T00:44:32.497Z,9.14
2016-03-15T00:45:32.531Z,9.16
2016-03-15T00:46:32.533Z,9.19
2016-03-15T00:47:32.567Z,9.08
2016-03-15T00:48:32.585Z,9.16
2016-03-15T00:49:32.589Z,9.13
2016-03-15T00:50:32.623Z,9.14
2016-03-15T00:51:32.625Z,9.19
2016-03-15T00:52:32.644Z,9.19
2016-03-15T00:53:32.662Z,9.14
2016-03-15T00:54:32.680Z,9.14
2016-03-15T00:55:32.699Z,9.13
2016-03-15T00:56:32.707Z,9.13
2016-03-15T00:57:32.740Z,9.11
2016-03-15T00:58:32.743Z,9.14
2016-03-15T00:59:32.761Z,9.14
2016-03-15T01:00:32.795Z,9.1
2016-03-15T01:01:32.797Z,9.11
2016-03-15T01:02:32.832Z,9.11
2016-03-15T01:03:32.834Z,9.19
2016-03-15T01:04:32.868Z,9.13
2016-03-15T01:05:32.886Z,9.13
2016-03-15T01:06:32.905Z,9.11
2016-03-15T01:07:32.908Z,9.13
2016-03-15T01:08:32.926Z,9.14
2016-03-15T01:09:32.944Z,9.14
2016-03-15T01:10:32.947Z,9.13
2016-03-15T01:11:32.981Z,9.11
2016-03-15T01:12:32.999Z,9.06
2016-03-15T01:13:33.033Z,9.06
2016-03-15T01:14:33.036Z,9.04
2016-03-15T01:15:33.054Z,9
2016-03-15T01:16:33.072Z,8.97
2016-03-15T01:17:33.091Z,9
2016-03-15T01:18:33.093Z,8.99
2016-03-15T01:19:33.127Z,9.03
2016-03-15T01:20:33.130Z,9.02
2016-03-15T01:21:33.164Z,9.03
2016-03-15T01:22:33.166Z,8.97
2016-03-15T01:23:33.185Z,8.94
2016-03-15T01:24:33.204Z,8.95
2016-03-15T01:25:33.065Z,9
2016-03-15T01:26:33.240Z,8.97
2016-03-15T01:27:33.259Z,8.95
2016-03-15T01:28:33.261Z,9.02
2016-03-15T01:29:33.295Z,9
2016-03-15T01:30:33.329Z,8.99
2016-03-15T01:31:33.331Z,9
2016-03-15T01:32:33.365Z,8.94
2016-03-15T01:33:33.353Z,8.94
2016-03-15T01:34:33.386Z,8.95
2016-03-15T01:35:33.390Z,8.99
2016-03-15T01:36:33.423Z,8.95
2016-03-15T01:37:33.425Z,8.99
2016-03-15T01:38:33.445Z,8.88
2016-03-15T01:39:33.478Z,8.92
2016-03-15T01:40:33.480Z,8.91
2016-03-15T01:41:33.515Z,8.87
2016-03-15T01:42:33.533Z,9.03
2016-03-15T01:43:33.536Z,8.94
2016-03-15T01:44:33.569Z,8.84
2016-03-15T01:45:33.572Z,8.92
2016-03-15T01:46:33.605Z,8.92
2016-03-15T01:47:33.609Z,9.02
2016-03-15T01:48:33.643Z,8.88
2016-03-15T01:49:33.645Z,9
2016-03-15T01:50:33.680Z,8.91
2016-03-15T01:51:33.682Z,8.89
2016-03-15T01:52:33.716Z,8.91
2016-03-15T01:53:33.719Z,8.84
2016-03-15T01:54:33.737Z,8.88
2016-03-15T01:55:33.755Z,8.88
2016-03-15T01:56:33.758Z,8.85
2016-03-15T01:57:33.792Z,8.94
2016-03-15T01:58:33.795Z,8.91
2016-03-15T01:59:33.813Z,8.87
2016-03-15T02:00:33.848Z,8.85
2016-03-15T02:01:33.850Z,8.95
2016-03-15T02:02:33.883Z,8.87
2016-03-15T02:03:33.887Z,8.89
2016-03-15T02:04:33.920Z,8.92
2016-03-15T02:05:33.923Z,8.87
2016-03-15T02:06:33.941Z,8.88
2016-03-15T02:07:33.959Z,8.87
2016-03-15T02:08:33.978Z,8.85
2016-03-15T02:09:33.997Z,8.92
2016-03-15T02:10:34.014Z,8.94
2016-03-15T02:11:34.033Z,8.85
2016-03-15T02:12:34.051Z,8.88
2016-03-15T02:13:34.085Z,8.89
2016-03-15T02:14:34.072Z,8.91
2016-03-15T02:15:34.106Z,8.92
2016-03-15T02:16:34.124Z,8.81
2016-03-15T02:17:34.127Z,8.91
2016-03-15T02:18:34.161Z,8.92
2016-03-15T02:19:34.195Z,8.85
2016-03-15T02:20:34.183Z,8.84
2016-03-15T02:21:34.216Z,8.94
2016-03-15T02:22:34.219Z,8.79
2016-03-15T02:23:34.252Z,8.78
2016-03-15T02:24:34.255Z,8.88
2016-03-15T02:25:34.274Z,8.79
2016-03-15T02:26:34.292Z,8.82
2016-03-15T02:27:34.295Z,8.85
2016-03-15T02:28:34.312Z,8.79
2016-03-15T02:29:34.331Z,8.88
2016-03-15T02:30:34.396Z,8.81
2016-03-15T02:31:34.367Z,8.87
2016-03-15T02:32:34.386Z,8.79
2016-03-15T02:33:34.404Z,8.79
2016-03-15T02:34:34.439Z,8.85
2016-03-15T02:35:34.442Z,8.76
2016-03-15T02:36:34.460Z,8.74
2016-03-15T02:37:34.478Z,8.84
2016-03-15T02:38:34.496Z,8.78
2016-03-15T02:39:34.514Z,8.79
2016-03-15T02:40:34.533Z,8.79
2016-03-15T02:41:34.550Z,8.71
2016-03-15T02:42:34.585Z,8.82
2016-03-15T02:43:34.588Z,8.78
2016-03-15T02:44:34.605Z,8.88
2016-03-15T02:45:34.609Z,8.74
2016-03-15T02:46:34.627Z,8.7
2016-03-15T02:47:34.645Z,8.76
2016-03-15T02:48:34.711Z,8.79
2016-03-15T02:49:34.713Z,8.7
2016-03-15T02:50:34.700Z,8.73
2016-03-15T02:51:34.749Z,8.69
2016-03-15T02:52:34.737Z,8.74
2016-03-15T02:53:34.755Z,8.66
2016-03-15T02:54:34.789Z,8.66
2016-03-15T02:55:34.777Z,8.66
2016-03-15T02:56:34.826Z,8.71
2016-03-15T02:57:34.813Z,8.71
2016-03-15T02:58:34.846Z,8.71
2016-03-15T02:59:34.849Z,8.67
2016-03-15T03:00:34.884Z,8.7
2016-03-15T03:01:34.886Z,8.76
2016-03-15T03:02:34.764Z,8.76
2016-03-15T03:03:34.922Z,8.66
2016-03-15T03:04:34.940Z,8.66
2016-03-15T03:05:34.959Z,8.7
2016-03-15T03:06:34.978Z,8.67
2016-03-15T03:07:34.995Z,8.69
2016-03-15T03:08:35.031Z,8.66
2016-03-15T03:09:35.048Z,8.69
2016-03-15T03:10:35.051Z,8.71
2016-03-15T03:11:35.084Z,8.7
2016-03-15T03:12:35.072Z,8.7
2016-03-15T03:13:35.106Z,8.69
2016-03-15T03:14:35.108Z,8.76
2016-03-15T03:15:35.142Z,8.71
2016-03-15T03:16:35.144Z,8.66
2016-03-15T03:17:35.163Z,8.67
2016-03-15T03:18:35.197Z,8.7
2016-03-15T03:19:35.199Z,8.67
2016-03-15T03:20:35.219Z,8.73
2016-03-15T03:21:35.237Z,8.66
2016-03-15T03:22:35.255Z,8.71
2016-03-15T03:23:35.258Z,8.71
2016-03-15T03:24:35.292Z,8.69
2016-03-15T03:25:35.294Z,8.64
2016-03-15T03:26:35.329Z,8.58
2016-03-15T03:27:35.346Z,8.69
2016-03-15T03:28:35.365Z,8.67
2016-03-15T03:29:35.212Z,8.6
2016-03-15T03:30:35.386Z,8.66
2016-03-15T03:31:35.404Z,8.61
2016-03-15T03:32:35.422Z,8.56
2016-03-15T03:33:35.441Z,8.56
2016-03-15T03:34:35.475Z,8.63
2016-03-15T03:35:35.478Z,8.51
2016-03-15T03:36:35.481Z,8.51
2016-03-15T03:37:35.545Z,8.61
2016-03-15T03:38:35.548Z,8.48
2016-03-15T03:39:35.551Z,8.51
2016-03-15T03:40:35.553Z,8.58
2016-03-15T03:41:35.572Z,8.63
2016-03-15T03:42:35.589Z,8.55
2016-03-15T03:43:35.639Z,8.63
2016-03-15T03:44:35.627Z,8.58
2016-03-15T03:45:35.645Z,8.63
2016-03-15T03:46:35.663Z,8.55
2016-03-15T03:47:35.666Z,8.61
2016-03-15T03:48:35.684Z,8.63
2016-03-15T03:49:35.702Z,8.56
2016-03-15T03:50:35.736Z,8.49
2016-03-15T03:51:35.739Z,8.55
2016-03-15T03:52:35.789Z,8.51
2016-03-15T03:53:35.791Z,8.58
2016-03-15T03:54:35.794Z,8.56
2016-03-15T03:55:35.812Z,8.53
2016-03-15T03:56:35.831Z,8.52
2016-03-15T03:57:35.865Z,8.53
2016-03-15T03:58:35.867Z,8.51
2016-03-15T03:59:35.886Z,8.6
2016-03-15T04:00:35.888Z,8.55
2016-03-15T04:01:35.938Z,8.55
2016-03-15T04:02:35.957Z,8.53
2016-03-15T04:03:35.959Z,8.51
2016-03-15T04:04:35.962Z,8.53
2016-03-15T04:05:35.979Z,8.58
2016-03-15T04:06:36.014Z,8.52
2016-03-15T04:07:36.031Z,8.51
2016-03-15T04:08:36.035Z,8.53
2016-03-15T04:09:35.897Z,8.52
2016-03-15T04:10:36.072Z,8.52
2016-03-15T04:11:36.090Z,8.48
2016-03-15T04:12:36.108Z,8.49
2016-03-15T04:13:36.126Z,8.51
2016-03-15T04:14:36.145Z,8.51
2016-03-15T04:15:36.163Z,8.52
2016-03-15T04:16:36.181Z,8.56
2016-03-15T04:17:36.184Z,8.51
2016-03-15T04:18:36.202Z,8.52
2016-03-15T04:19:36.222Z,8.51
2016-03-15T04:20:36.239Z,8.51
2016-03-15T04:21:36.246Z,8.52
2016-03-15T04:22:36.265Z,8.53
2016-03-15T04:23:36.283Z,8.51
2016-03-15T04:24:36.318Z,8.53
2016-03-15T04:25:36.320Z,8.53
2016-03-15T04:26:36.354Z,8.51
2016-03-15T04:27:36.356Z,8.48
2016-03-15T04:28:36.375Z,8.53
2016-03-15T04:29:36.393Z,8.49
2016-03-15T04:30:36.411Z,8.52
2016-03-15T04:31:36.415Z,8.46
2016-03-15T04:32:36.432Z,8.48
2016-03-15T04:33:36.482Z,8.51
2016-03-15T04:34:36.470Z,8.55
2016-03-15T04:35:36.507Z,8.51
2016-03-15T04:36:36.509Z,8.52
2016-03-15T04:37:36.528Z,8.51
2016-03-15T04:38:36.546Z,8.51
2016-03-15T04:39:36.565Z,8.45
2016-03-15T04:40:36.599Z,8.42
2016-03-15T04:41:36.585Z,8.52
2016-03-15T04:42:36.635Z,8.52
2016-03-15T04:43:36.622Z,8.45
2016-03-15T04:44:36.499Z,8.49
2016-03-15T04:45:36.659Z,8.52
2016-03-15T04:46:36.693Z,8.49
2016-03-15T04:47:36.711Z,8.52
2016-03-15T04:48:36.715Z,8.38
2016-03-15T04:49:36.732Z,8.45
2016-03-15T04:50:36.765Z,8.53
2016-03-15T04:51:36.769Z,8.42
2016-03-15T04:52:36.787Z,8.51
2016-03-15T04:53:36.805Z,8.53
2016-03-15T04:54:36.808Z,8.49
2016-03-15T04:55:36.826Z,8.44
2016-03-15T04:56:36.891Z,8.45
2016-03-15T04:57:36.864Z,8.51
2016-03-15T04:58:36.897Z,8.44
2016-03-15T04:59:36.914Z,8.48
2016-03-15T05:00:36.903Z,8.46
2016-03-15T05:01:36.952Z,8.44
2016-03-15T05:02:36.954Z,8.51
2016-03-15T05:03:36.973Z,8.41
2016-03-15T05:04:36.975Z,8.41
2016-03-15T05:05:37.010Z,8.45
2016-03-15T05:06:37.013Z,8.44
2016-03-15T05:07:36.874Z,8.49
2016-03-15T05:08:37.049Z,8.41
2016-03-15T05:09:37.083Z,8.46
2016-03-15T05:10:37.085Z,8.46
2016-03-15T05:11:37.104Z,8.41
2016-03-15T05:12:37.138Z,8.45
2016-03-15T05:13:37.140Z,8.36
2016-03-15T05:14:37.174Z,8.42
2016-03-15T05:15:37.162Z,8.34
2016-03-15T05:16:37.210Z,8.31
2016-03-15T05:17:37.198Z,8.33
2016-03-15T05:18:37.248Z,8.36
2016-03-15T05:19:37.234Z,8.3
2016-03-15T05:20:37.268Z,8.34
2016-03-15T05:21:37.271Z,8.34
2016-03-15T05:22:37.289Z,8.34
2016-03-15T05:23:37.293Z,8.33
2016-03-15T05:24:37.326Z,8.3
2016-03-15T05:25:37.328Z,8.34
2016-03-15T05:26:37.363Z,8.33
2016-03-15T05:27:37.365Z,8.33
2016-03-15T05:28:37.384Z,8.33
2016-03-15T05:29:37.402Z,8.27
2016-03-15T05:30:37.420Z,8.3
2016-03-15T05:31:37.455Z,8.41
2016-03-15T05:32:37.442Z,8.28
2016-03-15T05:33:37.491Z,8.19
2016-03-15T05:34:37.478Z,8.33
2016-03-15T05:35:37.544Z,8.33
2016-03-15T05:36:37.514Z,8.31
2016-03-15T05:37:37.549Z,8.26
2016-03-15T05:38:37.535Z,8.36
2016-03-15T05:39:37.569Z,8.3
2016-03-15T05:40:37.588Z,8.19
2016-03-15T05:41:37.607Z,8.26
2016-03-15T05:42:37.624Z,8.31
2016-03-15T05:43:37.643Z,8.27
2016-03-15T05:44:37.661Z,8.31
2016-03-15T05:45:37.663Z,8.3
2016-03-15T05:46:37.682Z,8.34
2016-03-15T05:47:37.700Z,8.26
2016-03-15T05:48:37.719Z,8.31
2016-03-15T05:49:37.737Z,8.23
2016-03-15T05:50:37.740Z,8.19
2016-03-15T05:51:37.774Z,8.19
2016-03-15T05:52:37.792Z,8.2
2016-03-15T05:53:37.795Z,8.27
2016-03-15T05:54:37.813Z,8.2
2016-03-15T05:55:37.831Z,8.23
2016-03-15T05:56:37.850Z,8.15
2016-03-15T05:57:37.868Z,8.16
2016-03-15T05:58:37.870Z,8.18
2016-03-15T05:59:37.905Z,8.26
2016-03-15T06:00:37.923Z,8.24
2016-03-15T06:01:37.956Z,8.2
2016-03-15T06:02:37.959Z,8.27
2016-03-15T06:03:37.978Z,8.19
2016-03-15T06:04:37.996Z,8.13
2016-03-15T06:05:38.030Z,8.27
2016-03-15T06:06:38.011Z,8.2
2016-03-15T06:07:38.014Z,8.27
2016-03-15T06:08:38.018Z,8.26
2016-03-15T06:09:38.020Z,8.19
2016-03-15T06:10:38.023Z,8.16
2016-03-15T06:11:38.030Z,8.18
2016-03-15T06:12:38.027Z,8.23
2016-03-15T06:13:38.071Z,8.23
2016-03-15T06:14:38.068Z,8.2
2016-03-15T06:15:38.065Z,8.23
2016-03-15T06:16:38.081Z,8.2
2016-03-15T06:17:38.097Z,8.27
2016-03-15T06:18:38.112Z,8.2
2016-03-15T06:19:38.128Z,8.24
2016-03-15T06:20:38.144Z,8.24
2016-03-15T06:21:38.161Z,8.15
2016-03-15T06:22:38.178Z,8.2
2016-03-15T06:23:38.196Z,8.28
2016-03-15T06:24:38.213Z,8.26
2016-03-15T06:25:38.231Z,8.23
2016-03-15T06:26:38.249Z,8.2
2016-03-15T06:27:38.267Z,8.23
2016-03-15T06:28:38.270Z,8.2
2016-03-15T06:29:38.288Z,8.16
2016-03-15T06:30:38.306Z,8.15
2016-03-15T06:31:38.309Z,8.24
2016-03-15T06:32:38.328Z,8.12
2016-03-15T06:33:38.345Z,8.13
2016-03-15T06:34:38.365Z,8.16
2016-03-15T06:35:38.383Z,8.13
2016-03-15T06:36:38.417Z,8.2
2016-03-15T06:37:38.419Z,8.16
2016-03-15T06:38:38.437Z,8.18
2016-03-15T06:39:38.439Z,8.15
2016-03-15T06:40:38.474Z,8.16
2016-03-15T06:41:38.492Z,8.19
2016-03-15T06:42:38.494Z,8.03
2016-03-15T06:43:38.530Z,8.13
2016-03-15T06:44:38.532Z,8.13
2016-03-15T06:45:38.566Z,8.15
2016-03-15T06:46:38.583Z,8.16
2016-03-15T06:47:38.602Z,8.18
2016-03-15T06:48:38.605Z,8.15
2016-03-15T06:49:38.654Z,8.13
2016-03-15T06:50:38.673Z,8.15
2016-03-15T06:51:38.643Z,8.1
2016-03-15T06:52:38.693Z,8.12
2016-03-15T06:53:38.681Z,8.09
2016-03-15T06:54:38.699Z,8.12
2016-03-15T06:55:38.701Z,8.1
2016-03-15T06:56:38.735Z,8.12
2016-03-15T06:57:38.770Z,8.09
2016-03-15T06:58:38.756Z,8.1
2016-03-15T06:59:38.822Z,8.1
2016-03-15T07:00:38.793Z,8.05
2016-03-15T07:01:38.828Z,8.03
2016-03-15T07:02:38.815Z,8.09
2016-03-15T07:03:38.848Z,8.15
2016-03-15T07:04:38.851Z,8.09
2016-03-15T07:05:38.870Z,8.12
2016-03-15T07:06:38.778Z,8.13
2016-03-15T07:07:38.910Z,8.09
2016-03-15T07:08:38.944Z,8.13
2016-03-15T07:09:38.946Z,8.15
2016-03-15T07:10:38.949Z,8.13
2016-03-15T07:11:38.968Z,8.16
2016-03-15T07:12:38.985Z,8.16
2016-03-15T07:13:39.020Z,8.13
2016-03-15T07:14:39.023Z,8.16
2016-03-15T07:15:39.041Z,8.12
2016-03-15T07:16:39.059Z,8.2
2016-03-15T07:17:39.078Z,8.19
2016-03-15T07:18:39.096Z,8.19
2016-03-15T07:19:39.114Z,8.18
2016-03-15T07:20:39.117Z,8.27
2016-03-15T07:21:39.134Z,8.24
2016-03-15T07:22:39.153Z,8.27
2016-03-15T07:23:39.172Z,8.13
2016-03-15T07:24:39.190Z,8.19
2016-03-15T07:25:39.208Z,8.23
2016-03-15T07:26:39.211Z,8.28
2016-03-15T07:27:39.245Z,8.24
2016-03-15T07:28:39.247Z,8.23
2016-03-15T07:29:39.266Z,8.2
2016-03-15T07:30:39.284Z,8.19
2016-03-15T07:31:39.302Z,8.2
2016-03-15T07:32:39.321Z,8.23
2016-03-15T07:33:39.183Z,8.23
2016-03-15T07:34:39.373Z,8.33
2016-03-15T07:35:39.377Z,8.36
2016-03-15T07:36:39.394Z,8.3
2016-03-15T07:37:39.396Z,8.33
2016-03-15T07:38:39.416Z,8.34
2016-03-15T07:39:39.433Z,8.38
2016-03-15T07:40:39.451Z,8.41
2016-03-15T07:41:39.485Z,8.42
2016-03-15T07:42:39.504Z,8.41
2016-03-15T07:43:39.506Z,8.42
2016-03-15T07:44:39.510Z,8.45
2016-03-15T07:45:39.543Z,8.44
2016-03-15T07:46:39.545Z,8.49
2016-03-15T07:47:39.565Z,8.49
2016-03-15T07:48:39.598Z,8.48
2016-03-15T07:49:39.601Z,8.51
2016-03-15T07:50:39.634Z,8.52
2016-03-15T07:51:39.637Z,8.48
2016-03-15T07:52:39.672Z,8.53
2016-03-15T07:53:39.675Z,8.48
2016-03-15T07:54:39.708Z,8.49
2016-03-15T07:55:39.726Z,8.58
2016-03-15T07:56:39.728Z,8.51
2016-03-15T07:57:39.747Z,8.51
2016-03-15T07:58:39.766Z,8.52
2016-03-15T07:59:39.768Z,8.52
2016-03-15T08:00:39.787Z,8.53
2016-03-15T08:01:39.789Z,8.51
2016-03-15T08:02:39.824Z,8.51
2016-03-15T08:03:39.826Z,8.55
2016-03-15T08:04:39.844Z,8.55
2016-03-15T08:05:39.707Z,8.49
2016-03-15T08:06:39.880Z,8.56
2016-03-15T08:07:39.899Z,8.49
2016-03-15T08:08:39.917Z,8.53
2016-03-15T08:09:39.936Z,8.52
2016-03-15T08:10:39.954Z,8.51
2016-03-15T08:11:39.957Z,8.52
2016-03-15T08:12:39.991Z,8.51
2016-03-15T08:13:39.993Z,8.53
2016-03-15T08:14:40.012Z,8.55
2016-03-15T08:15:40.030Z,8.51
2016-03-15T08:16:40.048Z,8.52
2016-03-15T08:17:40.067Z,8.61
2016-03-15T08:18:40.085Z,8.64
2016-03-15T08:19:40.103Z,8.63
2016-03-15T08:20:40.123Z,8.64
2016-03-15T08:21:39.984Z,8.63
2016-03-15T08:22:40.159Z,8.63
2016-03-15T08:23:40.162Z,8.7
2016-03-15T08:24:40.179Z,8.66
2016-03-15T08:25:40.213Z,8.67
2016-03-15T08:26:40.231Z,8.71
2016-03-15T08:27:40.234Z,8.67
2016-03-15T08:28:40.252Z,8.7
2016-03-15T08:29:40.272Z,8.76
2016-03-15T08:30:40.289Z,8.82
2016-03-15T08:31:40.291Z,8.78
2016-03-15T08:32:40.311Z,8.82
2016-03-15T08:33:40.344Z,8.85
2016-03-15T08:34:40.362Z,8.81
2016-03-15T08:35:40.381Z,8.84
2016-03-15T08:36:40.383Z,8.89
2016-03-15T08:37:40.402Z,8.88
2016-03-15T08:38:40.421Z,8.95
2016-03-15T08:39:40.438Z,8.97
2016-03-15T08:40:40.457Z,9
2016-03-15T08:41:40.460Z,8.97
2016-03-15T08:42:40.493Z,9.02
2016-03-15T08:43:40.496Z,9.1
2016-03-15T08:44:40.515Z,9
2016-03-15T08:45:40.532Z,9.06
2016-03-15T08:46:40.551Z,9.08
2016-03-15T08:47:40.601Z,9.13
2016-03-15T08:48:40.604Z,9.1
2016-03-15T08:49:40.638Z,9.16
2016-03-15T08:50:40.624Z,9.13
2016-03-15T08:51:40.626Z,9.22
2016-03-15T08:52:40.661Z,9.25
2016-03-15T08:53:40.664Z,9.29
2016-03-15T08:54:40.697Z,9.39
2016-03-15T08:55:40.717Z,9.37
2016-03-15T08:56:40.734Z,9.41
2016-03-15T08:57:40.736Z,9.47
2016-03-15T08:58:40.755Z,9.44
2016-03-15T08:59:40.758Z,9.44
2016-03-15T09:00:40.792Z,9.54
2016-03-15T09:01:40.810Z,9.56
2016-03-15T09:02:40.813Z,9.58
2016-03-15T09:03:40.847Z,9.59
2016-03-15T09:04:40.866Z,9.55
2016-03-15T09:05:40.883Z,9.65
2016-03-15T09:06:40.902Z,9.72
2016-03-15T09:07:40.920Z,9.68
2016-03-15T09:08:40.938Z,9.64
2016-03-15T09:09:40.940Z,9.72
2016-03-15T09:10:40.975Z,9.66
2016-03-15T09:11:40.977Z,9.76
2016-03-15T09:12:40.996Z,9.74
2016-03-15T09:13:41.015Z,9.68
2016-03-15T09:14:41.032Z,9.62
2016-03-15T09:15:41.051Z,9.65
2016-03-15T09:16:41.069Z,9.66
2016-03-15T09:17:41.087Z,9.74
2016-03-15T09:18:41.106Z,9.84
2016-03-15T09:19:41.109Z,9.79
2016-03-15T09:20:41.142Z,9.79
2016-03-15T09:21:41.162Z,9.79
2016-03-15T09:22:41.179Z,9.84
2016-03-15T09:23:41.212Z,9.83
2016-03-15T09:24:41.201Z,9.84
2016-03-15T09:25:41.218Z,9.84
2016-03-15T09:26:41.236Z,9.86
2016-03-15T09:27:41.270Z,9.86
2016-03-15T09:28:41.289Z,9.89
2016-03-15T09:29:41.307Z,9.92
2016-03-15T09:30:41.311Z,9.94
2016-03-15T09:31:41.328Z,9.92
2016-03-15T09:32:41.346Z,9.99
2016-03-15T09:33:41.365Z,10.01
2016-03-15T09:34:41.383Z,9.95
2016-03-15T09:35:41.385Z,9.94
2016-03-15T09:36:41.420Z,10.16
2016-03-15T09:37:41.422Z,10.16
2016-03-15T09:38:41.457Z,10.15
2016-03-15T09:39:41.475Z,10.15
2016-03-15T09:40:41.477Z,10.1
2016-03-15T09:41:41.496Z,10.2
2016-03-15T09:42:41.514Z,10.2
2016-03-15T09:43:40.798Z,10.33
2016-03-15T09:44:41.566Z,10.33
2016-03-15T09:45:41.584Z,10.34
2016-03-15T09:46:41.604Z,10.26
2016-03-15T09:47:41.637Z,10.31
2016-03-15T09:48:41.639Z,10.35
2016-03-15T09:49:41.658Z,10.46
2016-03-15T09:50:41.676Z,10.42
2016-03-15T09:51:41.678Z,10.42
2016-03-15T09:52:41.713Z,10.44
2016-03-15T09:53:41.715Z,10.4
2016-03-15T09:54:41.734Z,10.51
2016-03-15T09:55:41.753Z,10.42
2016-03-15T09:56:41.770Z,10.4
2016-03-15T09:57:41.789Z,10.42
2016-03-15T09:58:41.807Z,10.44
2016-03-15T09:59:41.825Z,10.41
2016-03-15T10:00:41.844Z,10.4
2016-03-15T10:01:41.862Z,10.44
2016-03-15T10:02:41.880Z,10.48
2016-03-15T10:03:41.899Z,10.44
2016-03-15T10:04:41.933Z,10.4
2016-03-15T10:05:42.310Z,10.44
2016-03-15T10:06:41.953Z,10.44
2016-03-15T10:07:41.972Z,10.41
2016-03-15T10:08:41.995Z,10.48
2016-03-15T10:09:42.013Z,10.49
2016-03-15T10:10:42.016Z,10.56
2016-03-15T10:11:42.050Z,10.56
2016-03-15T10:12:42.052Z,10.48
2016-03-15T10:13:42.071Z,10.56
2016-03-15T10:14:42.105Z,10.53
2016-03-15T10:15:42.123Z,10.54
2016-03-15T10:16:42.142Z,10.53
2016-03-15T10:17:42.160Z,10.53
2016-03-15T10:18:42.178Z,10.51
2016-03-15T10:19:42.181Z,10.48
2016-03-15T10:20:42.199Z,10.46
2016-03-15T10:21:42.217Z,10.48
2016-03-15T10:22:42.236Z,10.4
2016-03-15T10:23:42.254Z,10.41
2016-03-15T10:24:42.289Z,10.37
2016-03-15T10:25:42.291Z,10.37
2016-03-15T10:26:42.309Z,10.34
2016-03-15T10:27:42.328Z,10.41
2016-03-15T10:28:42.189Z,10.4
2016-03-15T10:29:42.380Z,10.4
2016-03-15T10:30:42.383Z,10.37
2016-03-15T10:31:42.400Z,10.38
2016-03-15T10:32:42.419Z,10.38
2016-03-15T10:33:42.438Z,10.38
2016-03-15T10:34:42.455Z,10.28
2016-03-15T10:35:42.489Z,10.37
2016-03-15T10:36:42.492Z,10.31
2016-03-15T10:37:42.526Z,10.34
2016-03-15T10:38:42.544Z,10.4
2016-03-15T10:39:42.547Z,10.35
2016-03-15T10:40:42.566Z,10.3
2016-03-15T10:41:42.584Z,10.38
2016-03-15T10:42:42.602Z,10.3
2016-03-15T10:43:42.621Z,10.28
2016-03-15T10:44:42.654Z,10.37
2016-03-15T10:45:42.657Z,10.37
2016-03-15T10:46:42.676Z,10.34
2016-03-15T10:47:42.693Z,10.35
2016-03-15T10:48:42.713Z,10.31
2016-03-15T10:49:42.731Z,10.33
2016-03-15T10:50:42.748Z,10.35
2016-03-15T10:51:42.782Z,10.3
2016-03-15T10:52:42.785Z,10.33
2016-03-15T10:53:42.819Z,10.34
2016-03-15T10:54:42.853Z,10.28
2016-03-15T10:55:42.840Z,10.35
2016-03-15T10:56:42.859Z,10.31
2016-03-15T10:57:42.877Z,10.34
2016-03-15T10:58:42.895Z,10.33
2016-03-15T10:59:42.914Z,10.33
2016-03-15T11:00:42.931Z,10.35
2016-03-15T11:01:42.950Z,10.31
2016-03-15T11:02:42.968Z,10.33
2016-03-15T11:03:42.987Z,10.3
2016-03-15T11:04:43.006Z,10.37
2016-03-15T11:05:43.039Z,10.33
2016-03-15T11:06:43.042Z,10.31
2016-03-15T11:07:43.060Z,10.31
2016-03-15T11:08:43.094Z,10.31
2016-03-15T11:09:43.096Z,10.31
2016-03-15T11:10:43.146Z,10.3
2016-03-15T11:11:43.180Z,10.33
2016-03-15T11:12:43.152Z,10.38
2016-03-15T11:13:43.171Z,10.3
2016-03-15T11:14:43.188Z,10.3
2016-03-15T11:15:43.206Z,10.28
2016-03-15T11:16:43.224Z,10.35
2016-03-15T11:17:43.243Z,10.38
2016-03-15T11:18:43.261Z,10.35
2016-03-15T11:19:43.343Z,10.42
2016-03-15T11:20:43.298Z,10.41
2016-03-15T11:21:43.363Z,10.41
2016-03-15T11:22:43.335Z,10.42
2016-03-15T11:23:43.368Z,10.46
2016-03-15T11:24:43.371Z,10.42
2016-03-15T11:25:43.389Z,10.46
2016-03-15T11:26:43.408Z,10.44
2016-03-15T11:27:43.426Z,10.48
2016-03-15T11:28:43.476Z,10.51
2016-03-15T11:29:43.463Z,10.54
2016-03-15T11:30:43.497Z,10.59
2016-03-15T11:31:43.515Z,10.59
2016-03-15T11:32:43.517Z,10.57
2016-03-15T11:33:43.380Z,10.54
2016-03-15T11:34:43.570Z,10.59
2016-03-15T11:35:43.588Z,10.54
2016-03-15T11:36:43.639Z,10.51
2016-03-15T11:37:43.625Z,10.46
2016-03-15T11:38:43.644Z,10.44
2016-03-15T11:39:43.662Z,10.42
2016-03-15T11:40:43.664Z,10.4
2016-03-15T11:41:43.699Z,10.4
2016-03-15T11:42:43.701Z,10.42
2016-03-15T11:43:43.735Z,10.44
2016-03-15T11:44:43.738Z,10.4
2016-03-15T11:45:43.771Z,10.3
2016-03-15T11:46:43.774Z,10.26
2016-03-15T11:47:43.793Z,10.3
2016-03-15T11:48:43.810Z,10.31
2016-03-15T11:49:43.829Z,10.28
2016-03-15T11:50:43.848Z,10.34
2016-03-15T11:51:43.897Z,10.31
2016-03-15T11:52:43.885Z,10.28
2016-03-15T11:53:43.918Z,10.25
2016-03-15T11:54:43.936Z,10.25
2016-03-15T11:55:43.940Z,10.26
2016-03-15T11:56:43.973Z,10.26
2016-03-15T11:57:43.991Z,10.3
2016-03-15T11:58:44.822Z,10.28
2016-03-15T11:59:44.012Z,10.16
2016-03-15T12:00:44.031Z,10.13
2016-03-15T12:01:44.049Z,10.19
2016-03-15T12:02:44.067Z,10.2
2016-03-15T12:03:44.086Z,10.1
2016-03-15T12:04:44.525Z,10.15
2016-03-15T12:05:44.138Z,10.1
2016-03-15T12:06:44.078Z,10.12
2016-03-15T12:07:44.174Z,10.17
2016-03-15T12:08:44.194Z,10.1
2016-03-15T12:09:44.242Z,10.17
2016-03-15T12:10:44.213Z,10.15
2016-03-15T12:11:44.248Z,10.13
2016-03-15T12:12:44.266Z,10.16
2016-03-15T12:13:44.268Z,10.1
2016-03-15T12:14:44.287Z,10.16
2016-03-15T12:15:44.305Z,10.09
2016-03-15T12:16:44.324Z,10.1
2016-03-15T12:17:44.357Z,10.05
2016-03-15T12:18:44.376Z,10.1
2016-03-15T12:19:44.238Z,10.09
2016-03-15T12:20:44.256Z,10.15
2016-03-15T12:21:44.415Z,10.12
2016-03-15T12:22:44.434Z,10.07
2016-03-15T12:23:44.467Z,10.05
2016-03-15T12:24:44.487Z,10.09
2016-03-15T12:25:44.489Z,10.09
2016-03-15T12:26:44.506Z,10.01
2016-03-15T12:27:44.526Z,10.07
2016-03-15T12:28:44.590Z,10.16
2016-03-15T12:29:44.561Z,9.99
2016-03-15T12:30:44.581Z,10.07
2016-03-15T12:31:44.614Z,10.12
2016-03-15T12:32:44.633Z,10.1
2016-03-15T12:33:44.650Z,10.09
2016-03-15T12:34:44.669Z,10.01
2016-03-15T12:35:44.687Z,10.07
2016-03-15T12:36:44.689Z,10.09
2016-03-15T12:37:44.552Z,10.04
2016-03-15T12:38:44.727Z,9.99
2016-03-15T12:39:44.760Z,10.02
2016-03-15T12:40:44.764Z,9.97
2016-03-15T12:41:44.782Z,9.95
2016-03-15T12:42:44.799Z,10.02
2016-03-15T12:43:44.819Z,9.99
2016-03-15T12:44:44.836Z,9.91
2016-03-15T12:45:44.854Z,9.95
2016-03-15T12:46:44.874Z,9.94
2016-03-15T12:47:44.891Z,9.92
2016-03-15T12:48:44.910Z,9.98
2016-03-15T12:49:44.929Z,9.87
2016-03-15T12:50:44.946Z,9.92
2016-03-15T12:51:44.980Z,9.94
2016-03-15T12:52:44.982Z,9.84
2016-03-15T12:53:45.001Z,9.92
2016-03-15T12:54:45.066Z,9.97
2016-03-15T12:55:45.038Z,9.98
2016-03-15T12:56:45.057Z,9.89
2016-03-15T12:57:45.075Z,9.94
2016-03-15T12:58:45.093Z,9.94
2016-03-15T12:59:45.112Z,9.82
2016-03-15T13:00:45.129Z,9.91
2016-03-15T13:01:45.148Z,9.83
2016-03-15T13:02:45.181Z,9.8
2016-03-15T13:03:45.200Z,9.84
2016-03-15T13:04:45.203Z,9.83
2016-03-15T13:05:45.237Z,9.84
2016-03-15T13:06:45.286Z,9.82
2016-03-15T13:07:45.257Z,9.84
2016-03-15T13:08:45.275Z,9.8
2016-03-15T13:09:45.138Z,9.82
2016-03-15T13:10:45.312Z,9.84
2016-03-15T13:11:45.331Z,9.84
2016-03-15T13:12:45.333Z,9.82
2016-03-15T13:13:45.368Z,9.84
2016-03-15T13:14:45.386Z,9.76
2016-03-15T13:15:45.404Z,9.84